sensor_id;sensor_type;location;lat;lon;timestamp;temperature;humidity
17033;DHT22;63208;52.178;21.016;2022-09-01T00:01:41;14.70;99.90
17033;DHT22;63208;52.178;21.016;2022-09-01T00:04:09;14.70;99.90
17033;DHT22;63208;52.178;21.016;2022-09-01T00:06:37;14.70;99.90
17033;DHT22;63208;52.178;21.016;2022-09-01T00:09:06;14.70;99.90
17033;DHT22;63208;52.178;21.016;2022-09-01T00:11:34;14.70;99.90
17033;DHT22;63208;52.178;21.016;2022-09-01T00:14:01;14.70;99.90
17033;DHT22;63208;52.178;21.016;2022-09-01T00:16:30;14.70;99.90
17033;DHT22;63208;52.178;21.016;2022-09-01T00:18:57;14.60;99.90
17033;DHT22;63208;52.178;21.016;2022-09-01T00:21:27;14.60;99.90
17033;DHT22;63208;52.178;21.016;2022-09-01T00:23:54;14.50;99.90
17033;DHT22;63208;52.178;21.016;2022-09-01T00:26:21;14.50;99.90
17033;DHT22;63208;52.178;21.016;2022-09-01T00:28:49;14.50;99.90
17033;DHT22;63208;52.178;21.016;2022-09-01T00:31:16;14.40;99.90
17033;DHT22;63208;52.178;21.016;2022-09-01T00:33:46;14.40;99.90
17033;DHT22;63208;52.178;21.016;2022-09-01T00:36:13;14.40;99.90
17033;DHT22;63208;52.178;21.016;2022-09-01T00:38:40;14.40;99.90
17033;DHT22;63208;52.178;21.016;2022-09-01T00:41:07;14.40;99.90
17033;DHT22;63208;52.178;21.016;2022-09-01T00:43:36;14.40;99.90
17033;DHT22;63208;52.178;21.016;2022-09-01T00:46:05;14.40;99.90
17033;DHT22;63208;52.178;21.016;2022-09-01T00:48:32;14.30;99.90
17033;DHT22;63208;52.178;21.016;2022-09-01T00:51:01;14.30;99.90
17033;DHT22;63208;52.178;21.016;2022-09-01T00:53:28;14.20;99.90
17033;DHT22;63208;52.178;21.016;2022-09-01T00:55:55;14.20;99.90
17033;DHT22;63208;52.178;21.016;2022-09-01T00:58:22;14.20;99.90
17033;DHT22;63208;52.178;21.016;2022-09-01T01:00:50;14.10;99.90
17033;DHT22;63208;52.178;21.016;2022-09-01T01:03:18;14.10;99.90
17033;DHT22;63208;52.178;21.016;2022-09-01T01:05:50;14.10;99.90
17033;DHT22;63208;52.178;21.016;2022-09-01T01:08:21;14.10;99.90
17033;DHT22;63208;52.178;21.016;2022-09-01T01:10:56;14.10;99.90
17033;DHT22;63208;52.178;21.016;2022-09-01T01:13:23;14.10;99.90
17033;DHT22;63208;52.178;21.016;2022-09-01T01:15:50;14.00;99.90
17033;DHT22;63208;52.178;21.016;2022-09-01T01:18:17;14.00;99.90
17033;DHT22;63208;52.178;21.016;2022-09-01T01:20:44;14.00;99.90
17033;DHT22;63208;52.178;21.016;2022-09-01T01:23:37;14.00;99.90
17033;DHT22;63208;52.178;21.016;2022-09-01T01:26:08;14.00;99.90
17033;DHT22;63208;52.178;21.016;2022-09-01T01:28:38;14.00;99.90
17033;DHT22;63208;52.178;21.016;2022-09-01T01:31:08;13.90;99.90
17033;DHT22;63208;52.178;21.016;2022-09-01T01:33:39;14.00;99.90
17033;DHT22;63208;52.178;21.016;2022-09-01T01:36:07;14.00;99.90
17033;DHT22;63208;52.178;21.016;2022-09-01T01:38:37;14.00;99.90
17033;DHT22;63208;52.178;21.016;2022-09-01T01:41:06;13.90;99.90
17033;DHT22;63208;52.178;21.016;2022-09-01T01:43:33;13.90;99.90
17033;DHT22;63208;52.178;21.016;2022-09-01T01:46:04;13.70;99.90
17033;DHT22;63208;52.178;21.016;2022-09-01T01:48:32;13.70;99.90
17033;DHT22;63208;52.178;21.016;2022-09-01T01:51:02;13.70;99.90
17033;DHT22;63208;52.178;21.016;2022-09-01T01:53:31;13.70;99.90
17033;DHT22;63208;52.178;21.016;2022-09-01T01:55:58;13.70;99.90
17033;DHT22;63208;52.178;21.016;2022-09-01T01:58:27;13.60;99.90
17033;DHT22;63208;52.178;21.016;2022-09-01T02:00:55;13.60;99.90
17033;DHT22;63208;52.178;21.016;2022-09-01T02:03:26;13.60;99.90
17033;DHT22;63208;52.178;21.016;2022-09-01T02:05:55;13.60;99.90
17033;DHT22;63208;52.178;21.016;2022-09-01T02:08:23;13.60;99.90
17033;DHT22;63208;52.178;21.016;2022-09-01T02:10:53;13.70;99.90
17033;DHT22;63208;52.178;21.016;2022-09-01T02:13:23;13.60;99.90
17033;DHT22;63208;52.178;21.016;2022-09-01T02:15:58;13.60;99.90
17033;DHT22;63208;52.178;21.016;2022-09-01T02:18:28;13.60;99.90
17033;DHT22;63208;52.178;21.016;2022-09-01T02:20:58;13.50;99.90
17033;DHT22;63208;52.178;21.016;2022-09-01T02:23:26;13.50;99.90
17033;DHT22;63208;52.178;21.016;2022-09-01T02:25:56;13.50;99.90
17033;DHT22;63208;52.178;21.016;2022-09-01T02:28:25;13.50;99.90
17033;DHT22;63208;52.178;21.016;2022-09-01T02:30:53;13.50;99.90
17033;DHT22;63208;52.178;21.016;2022-09-01T02:33:24;13.50;99.90
17033;DHT22;63208;52.178;21.016;2022-09-01T02:35:53;13.50;99.90
17033;DHT22;63208;52.178;21.016;2022-09-01T02:38:21;13.40;99.90
17033;DHT22;63208;52.178;21.016;2022-09-01T02:40:55;13.40;99.90
17033;DHT22;63208;52.178;21.016;2022-09-01T02:43:23;13.40;99.90
17033;DHT22;63208;52.178;21.016;2022-09-01T02:45:54;13.40;99.90
17033;DHT22;63208;52.178;21.016;2022-09-01T02:48:28;13.30;99.90
17033;DHT22;63208;52.178;21.016;2022-09-01T02:50:58;13.30;99.90
17033;DHT22;63208;52.178;21.016;2022-09-01T02:53:26;13.30;99.90
17033;DHT22;63208;52.178;21.016;2022-09-01T02:55:53;13.30;99.90
17033;DHT22;63208;52.178;21.016;2022-09-01T02:58:24;13.30;99.90
17033;DHT22;63208;52.178;21.016;2022-09-01T03:00:52;13.30;99.90
17033;DHT22;63208;52.178;21.016;2022-09-01T03:03:19;13.30;99.90
17033;DHT22;63208;52.178;21.016;2022-09-01T03:05:50;13.30;99.90
17033;DHT22;63208;52.178;21.016;2022-09-01T03:08:19;13.30;99.90
17033;DHT22;63208;52.178;21.016;2022-09-01T03:10:46;13.20;99.90
17033;DHT22;63208;52.178;21.016;2022-09-01T03:13:15;13.20;99.90
17033;DHT22;63208;52.178;21.016;2022-09-01T03:15:43;13.20;99.90
17033;DHT22;63208;52.178;21.016;2022-09-01T03:18:11;13.20;99.90
17033;DHT22;63208;52.178;21.016;2022-09-01T03:20:40;13.10;99.90
17033;DHT22;63208;52.178;21.016;2022-09-01T03:23:11;13.10;99.90
17033;DHT22;63208;52.178;21.016;2022-09-01T03:25:40;13.10;99.90
17033;DHT22;63208;52.178;21.016;2022-09-01T03:28:07;13.10;99.90
17033;DHT22;63208;52.178;21.016;2022-09-01T03:30:35;13.00;99.90
17033;DHT22;63208;52.178;21.016;2022-09-01T03:33:06;13.10;99.90
17033;DHT22;63208;52.178;21.016;2022-09-01T03:35:33;13.10;99.90
17033;DHT22;63208;52.178;21.016;2022-09-01T03:38:01;13.10;99.90
17033;DHT22;63208;52.178;21.016;2022-09-01T03:40:32;13.00;99.90
17033;DHT22;63208;52.178;21.016;2022-09-01T03:43:02;13.00;99.90
17033;DHT22;63208;52.178;21.016;2022-09-01T03:45:30;13.00;99.90
17033;DHT22;63208;52.178;21.016;2022-09-01T03:48:00;13.00;99.90
17033;DHT22;63208;52.178;21.016;2022-09-01T03:50:34;13.00;99.90
17033;DHT22;63208;52.178;21.016;2022-09-01T03:53:06;13.00;99.90
17033;DHT22;63208;52.178;21.016;2022-09-01T03:55:35;13.00;99.90
17033;DHT22;63208;52.178;21.016;2022-09-01T03:58:04;13.00;99.90
17033;DHT22;63208;52.178;21.016;2022-09-01T04:00:35;13.00;99.90
17033;DHT22;63208;52.178;21.016;2022-09-01T04:03:04;12.90;99.90
17033;DHT22;63208;52.178;21.016;2022-09-01T04:05:33;12.90;99.90
17033;DHT22;63208;52.178;21.016;2022-09-01T04:08:03;12.90;99.90
17033;DHT22;63208;52.178;21.016;2022-09-01T04:10:32;12.90;99.90
17033;DHT22;63208;52.178;21.016;2022-09-01T04:13:01;12.90;99.90
17033;DHT22;63208;52.178;21.016;2022-09-01T04:15:30;12.90;99.90
17033;DHT22;63208;52.178;21.016;2022-09-01T04:17:58;12.90;99.90
17033;DHT22;63208;52.178;21.016;2022-09-01T04:20:35;12.80;99.90
17033;DHT22;63208;52.178;21.016;2022-09-01T04:23:13;12.80;99.90
17033;DHT22;63208;52.178;21.016;2022-09-01T04:25:41;12.80;99.90
17033;DHT22;63208;52.178;21.016;2022-09-01T04:28:09;12.80;99.90
17033;DHT22;63208;52.178;21.016;2022-09-01T04:30:48;12.80;99.90
17033;DHT22;63208;52.178;21.016;2022-09-01T04:33:16;12.90;99.90
17033;DHT22;63208;52.178;21.016;2022-09-01T04:35:43;12.90;99.90
17033;DHT22;63208;52.178;21.016;2022-09-01T04:38:10;12.90;99.90
17033;DHT22;63208;52.178;21.016;2022-09-01T04:40:40;12.90;99.90
17033;DHT22;63208;52.178;21.016;2022-09-01T04:43:09;13.00;99.90
17033;DHT22;63208;52.178;21.016;2022-09-01T04:45:36;12.90;99.90
17033;DHT22;63208;52.178;21.016;2022-09-01T04:48:04;13.00;99.90
17033;DHT22;63208;52.178;21.016;2022-09-01T04:50:32;13.00;99.90
17033;DHT22;63208;52.178;21.016;2022-09-01T04:53:01;13.10;99.90
17033;DHT22;63208;52.178;21.016;2022-09-01T04:55:30;13.10;99.90
17033;DHT22;63208;52.178;21.016;2022-09-01T04:58:00;13.10;99.90
17033;DHT22;63208;52.178;21.016;2022-09-01T05:00:30;13.00;99.90
17033;DHT22;63208;52.178;21.016;2022-09-01T05:03:00;13.00;99.90
17033;DHT22;63208;52.178;21.016;2022-09-01T05:05:35;13.00;99.90
17033;DHT22;63208;52.178;21.016;2022-09-01T05:08:04;13.10;99.90
17033;DHT22;63208;52.178;21.016;2022-09-01T05:10:31;13.10;99.90
17033;DHT22;63208;52.178;21.016;2022-09-01T05:13:01;13.10;99.90
17033;DHT22;63208;52.178;21.016;2022-09-01T05:15:37;13.10;99.90
17033;DHT22;63208;52.178;21.016;2022-09-01T05:18:04;13.20;99.90
17033;DHT22;63208;52.178;21.016;2022-09-01T05:20:37;13.20;99.90
17033;DHT22;63208;52.178;21.016;2022-09-01T05:23:07;13.30;99.90
17033;DHT22;63208;52.178;21.016;2022-09-01T05:25:39;13.30;99.90
17033;DHT22;63208;52.178;21.016;2022-09-01T05:28:07;13.40;99.90
17033;DHT22;63208;52.178;21.016;2022-09-01T05:30:38;13.40;99.90
17033;DHT22;63208;52.178;21.016;2022-09-01T05:33:06;13.50;99.90
17033;DHT22;63208;52.178;21.016;2022-09-01T05:35:37;13.50;99.90
17033;DHT22;63208;52.178;21.016;2022-09-01T05:38:08;13.60;99.90
17033;DHT22;63208;52.178;21.016;2022-09-01T05:40:38;13.60;99.90
17033;DHT22;63208;52.178;21.016;2022-09-01T05:43:07;13.60;99.90
17033;DHT22;63208;52.178;21.016;2022-09-01T05:45:42;13.70;99.90
17033;DHT22;63208;52.178;21.016;2022-09-01T05:48:15;13.70;99.90
17033;DHT22;63208;52.178;21.016;2022-09-01T05:50:46;13.70;99.90
17033;DHT22;63208;52.178;21.016;2022-09-01T05:53:15;13.70;99.90
17033;DHT22;63208;52.178;21.016;2022-09-01T05:55:42;13.80;99.90
17033;DHT22;63208;52.178;21.016;2022-09-01T05:58:10;13.80;99.90
17033;DHT22;63208;52.178;21.016;2022-09-01T06:00:40;13.80;99.90
17033;DHT22;63208;52.178;21.016;2022-09-01T06:03:08;13.90;99.90
17033;DHT22;63208;52.178;21.016;2022-09-01T06:05:37;14.00;99.90
17033;DHT22;63208;52.178;21.016;2022-09-01T06:08:05;14.20;99.90
17033;DHT22;63208;52.178;21.016;2022-09-01T06:10:35;14.30;99.90
17033;DHT22;63208;52.178;21.016;2022-09-01T06:13:22;14.40;99.90
17033;DHT22;63208;52.178;21.016;2022-09-01T06:15:51;14.70;99.90
17033;DHT22;63208;52.178;21.016;2022-09-01T06:18:19;14.70;99.90
17033;DHT22;63208;52.178;21.016;2022-09-01T06:20:47;14.90;99.90
17033;DHT22;63208;52.178;21.016;2022-09-01T06:23:16;15.00;99.90
17033;DHT22;63208;52.178;21.016;2022-09-01T06:25:45;14.90;99.90
17033;DHT22;63208;52.178;21.016;2022-09-01T06:28:13;14.90;99.90
17033;DHT22;63208;52.178;21.016;2022-09-01T06:30:41;14.90;99.90
17033;DHT22;63208;52.178;21.016;2022-09-01T06:33:10;15.00;99.90
17033;DHT22;63208;52.178;21.016;2022-09-01T06:35:39;15.00;99.90
17033;DHT22;63208;52.178;21.016;2022-09-01T06:38:07;15.10;99.90
17033;DHT22;63208;52.178;21.016;2022-09-01T06:40:35;15.10;99.90
17033;DHT22;63208;52.178;21.016;2022-09-01T06:43:07;15.20;99.90
17033;DHT22;63208;52.178;21.016;2022-09-01T06:45:39;15.30;99.90
17033;DHT22;63208;52.178;21.016;2022-09-01T06:48:07;15.30;99.90
17033;DHT22;63208;52.178;21.016;2022-09-01T06:50:35;15.30;99.90
17033;DHT22;63208;52.178;21.016;2022-09-01T06:53:02;15.40;99.90
17033;DHT22;63208;52.178;21.016;2022-09-01T06:55:34;15.50;99.90
17033;DHT22;63208;52.178;21.016;2022-09-01T06:58:02;15.50;99.90
17033;DHT22;63208;52.178;21.016;2022-09-01T07:00:29;15.60;99.90
17033;DHT22;63208;52.178;21.016;2022-09-01T07:02:57;15.60;99.90
17033;DHT22;63208;52.178;21.016;2022-09-01T07:05:24;15.70;99.90
17033;DHT22;63208;52.178;21.016;2022-09-01T07:07:53;15.70;99.90
17033;DHT22;63208;52.178;21.016;2022-09-01T07:10:21;15.70;99.90
17033;DHT22;63208;52.178;21.016;2022-09-01T07:12:48;15.80;99.90
17033;DHT22;63208;52.178;21.016;2022-09-01T07:15:16;15.80;99.90
17033;DHT22;63208;52.178;21.016;2022-09-01T07:17:46;15.90;99.90
17033;DHT22;63208;52.178;21.016;2022-09-01T07:20:15;16.00;99.90
17033;DHT22;63208;52.178;21.016;2022-09-01T07:22:42;16.00;99.90
17033;DHT22;63208;52.178;21.016;2022-09-01T07:25:10;16.10;99.90
17033;DHT22;63208;52.178;21.016;2022-09-01T07:27:38;16.10;99.90
17033;DHT22;63208;52.178;21.016;2022-09-01T07:30:06;16.20;99.90
17033;DHT22;63208;52.178;21.016;2022-09-01T07:32:35;16.20;99.90
17033;DHT22;63208;52.178;21.016;2022-09-01T07:35:08;16.10;99.90
17033;DHT22;63208;52.178;21.016;2022-09-01T07:37:35;16.10;99.90
17033;DHT22;63208;52.178;21.016;2022-09-01T07:40:03;16.20;99.90
17033;DHT22;63208;52.178;21.016;2022-09-01T07:42:33;16.20;99.90
17033;DHT22;63208;52.178;21.016;2022-09-01T07:45:00;16.20;99.90
17033;DHT22;63208;52.178;21.016;2022-09-01T07:47:33;16.30;99.90
17033;DHT22;63208;52.178;21.016;2022-09-01T07:50:01;16.30;99.90
17033;DHT22;63208;52.178;21.016;2022-09-01T07:52:33;16.30;99.90
17033;DHT22;63208;52.178;21.016;2022-09-01T07:55:01;16.40;99.90
17033;DHT22;63208;52.178;21.016;2022-09-01T07:57:28;16.60;99.90
17033;DHT22;63208;52.178;21.016;2022-09-01T07:59:57;16.50;99.90
17033;DHT22;63208;52.178;21.016;2022-09-01T08:02:25;16.60;99.90
17033;DHT22;63208;52.178;21.016;2022-09-01T08:04:52;16.60;99.90
17033;DHT22;63208;52.178;21.016;2022-09-01T08:07:19;16.60;99.90
17033;DHT22;63208;52.178;21.016;2022-09-01T08:09:46;16.60;99.90
17033;DHT22;63208;52.178;21.016;2022-09-01T08:12:13;16.60;99.90
17033;DHT22;63208;52.178;21.016;2022-09-01T08:14:40;16.70;99.90
17033;DHT22;63208;52.178;21.016;2022-09-01T08:17:08;16.70;99.90
17033;DHT22;63208;52.178;21.016;2022-09-01T08:19:35;16.70;99.90
17033;DHT22;63208;52.178;21.016;2022-09-01T08:22:02;16.70;99.90
17033;DHT22;63208;52.178;21.016;2022-09-01T08:24:29;16.80;99.90
17033;DHT22;63208;52.178;21.016;2022-09-01T08:26:56;16.80;99.90
17033;DHT22;63208;52.178;21.016;2022-09-01T08:29:23;16.80;99.90
17033;DHT22;63208;52.178;21.016;2022-09-01T08:31:50;16.80;99.90
17033;DHT22;63208;52.178;21.016;2022-09-01T08:34:19;16.90;99.90
17033;DHT22;63208;52.178;21.016;2022-09-01T08:36:46;16.90;99.90
17033;DHT22;63208;52.178;21.016;2022-09-01T08:39:13;17.00;99.90
17033;DHT22;63208;52.178;21.016;2022-09-01T08:41:42;17.10;99.90
17033;DHT22;63208;52.178;21.016;2022-09-01T08:44:18;17.10;99.90
17033;DHT22;63208;52.178;21.016;2022-09-01T08:46:48;17.00;99.90
17033;DHT22;63208;52.178;21.016;2022-09-01T08:49:22;17.00;99.90
17033;DHT22;63208;52.178;21.016;2022-09-01T08:51:54;17.00;99.90
17033;DHT22;63208;52.178;21.016;2022-09-01T08:54:25;17.00;99.90
17033;DHT22;63208;52.178;21.016;2022-09-01T08:56:58;17.00;99.90
17033;DHT22;63208;52.178;21.016;2022-09-01T08:59:26;17.10;99.90
17033;DHT22;63208;52.178;21.016;2022-09-01T09:01:59;17.10;99.90
17033;DHT22;63208;52.178;21.016;2022-09-01T09:04:44;17.10;99.90
17033;DHT22;63208;52.178;21.016;2022-09-01T09:07:22;16.90;99.90
17033;DHT22;63208;52.178;21.016;2022-09-01T09:09:55;17.00;99.90
17033;DHT22;63208;52.178;21.016;2022-09-01T09:12:48;17.10;99.90
17033;DHT22;63208;52.178;21.016;2022-09-01T09:15:25;17.10;99.90
17033;DHT22;63208;52.178;21.016;2022-09-01T09:17:59;17.20;99.90
17033;DHT22;63208;52.178;21.016;2022-09-01T09:20:28;17.30;99.90
17033;DHT22;63208;52.178;21.016;2022-09-01T09:22:55;17.40;99.90
17033;DHT22;63208;52.178;21.016;2022-09-01T09:25:22;17.30;99.90
17033;DHT22;63208;52.178;21.016;2022-09-01T09:27:50;17.30;99.90
17033;DHT22;63208;52.178;21.016;2022-09-01T09:30:20;17.50;99.90
17033;DHT22;63208;52.178;21.016;2022-09-01T09:32:50;17.60;99.90
17033;DHT22;63208;52.178;21.016;2022-09-01T09:35:24;17.90;99.90
17033;DHT22;63208;52.178;21.016;2022-09-01T09:37:53;18.00;99.90
17033;DHT22;63208;52.178;21.016;2022-09-01T09:40:22;18.00;99.90
17033;DHT22;63208;52.178;21.016;2022-09-01T09:43:02;18.00;99.90
17033;DHT22;63208;52.178;21.016;2022-09-01T09:45:30;18.00;99.90
17033;DHT22;63208;52.178;21.016;2022-09-01T09:47:59;18.00;99.90
17033;DHT22;63208;52.178;21.016;2022-09-01T09:50:31;18.10;99.90
17033;DHT22;63208;52.178;21.016;2022-09-01T09:53:15;18.20;99.90
17033;DHT22;63208;52.178;21.016;2022-09-01T09:55:56;18.00;99.90
17033;DHT22;63208;52.178;21.016;2022-09-01T09:58:25;18.10;99.90
17033;DHT22;63208;52.178;21.016;2022-09-01T10:01:07;18.00;99.90
17033;DHT22;63208;52.178;21.016;2022-09-01T10:03:41;18.20;99.90
17033;DHT22;63208;52.178;21.016;2022-09-01T10:06:11;18.20;99.90
17033;DHT22;63208;52.178;21.016;2022-09-01T10:08:42;18.10;99.90
17033;DHT22;63208;52.178;21.016;2022-09-01T10:11:26;18.20;99.90
17033;DHT22;63208;52.178;21.016;2022-09-01T10:13:54;18.30;99.90
17033;DHT22;63208;52.178;21.016;2022-09-01T10:16:30;18.40;99.90
17033;DHT22;63208;52.178;21.016;2022-09-01T10:19:13;18.50;99.90
17033;DHT22;63208;52.178;21.016;2022-09-01T10:21:42;18.40;99.90
17033;DHT22;63208;52.178;21.016;2022-09-01T10:24:17;18.50;99.90
17033;DHT22;63208;52.178;21.016;2022-09-01T10:26:48;18.50;99.90
17033;DHT22;63208;52.178;21.016;2022-09-01T10:29:20;18.40;99.90
17033;DHT22;63208;52.178;21.016;2022-09-01T10:31:50;18.50;99.90
17033;DHT22;63208;52.178;21.016;2022-09-01T10:34:20;18.30;99.90
17033;DHT22;63208;52.178;21.016;2022-09-01T10:36:48;18.40;99.90
17033;DHT22;63208;52.178;21.016;2022-09-01T10:39:18;18.50;99.90
17033;DHT22;63208;52.178;21.016;2022-09-01T10:41:48;18.60;99.90
17033;DHT22;63208;52.178;21.016;2022-09-01T10:44:20;18.70;99.90
17033;DHT22;63208;52.178;21.016;2022-09-01T10:46:49;18.90;99.90
17033;DHT22;63208;52.178;21.016;2022-09-01T10:52:05;18.90;99.90
17033;DHT22;63208;52.178;21.016;2022-09-01T10:54:52;18.90;99.90
17033;DHT22;63208;52.178;21.016;2022-09-01T10:57:35;18.90;99.90
17033;DHT22;63208;52.178;21.016;2022-09-01T11:03:59;19.00;99.90
17033;DHT22;63208;52.178;21.016;2022-09-01T11:06:55;19.10;99.90
17033;DHT22;63208;52.178;21.016;2022-09-01T11:09:26;19.00;99.90
17033;DHT22;63208;52.178;21.016;2022-09-01T11:14:57;18.90;99.90
17033;DHT22;63208;52.178;21.016;2022-09-01T11:17:25;18.90;99.90
17033;DHT22;63208;52.178;21.016;2022-09-01T11:20:03;19.10;99.90
17033;DHT22;63208;52.178;21.016;2022-09-01T11:22:35;19.20;99.90
17033;DHT22;63208;52.178;21.016;2022-09-01T11:28:00;19.50;99.90
17033;DHT22;63208;52.178;21.016;2022-09-01T11:30:43;19.20;99.90
17033;DHT22;63208;52.178;21.016;2022-09-01T11:33:37;19.10;99.90
17033;DHT22;63208;52.178;21.016;2022-09-01T11:36:11;19.20;99.90
17033;DHT22;63208;52.178;21.016;2022-09-01T11:38:45;19.50;99.90
17033;DHT22;63208;52.178;21.016;2022-09-01T11:41:20;19.50;99.90
17033;DHT22;63208;52.178;21.016;2022-09-01T11:43:51;19.50;99.90
17033;DHT22;63208;52.178;21.016;2022-09-01T11:46:25;19.40;99.90
17033;DHT22;63208;52.178;21.016;2022-09-01T11:48:53;19.40;99.90
17033;DHT22;63208;52.178;21.016;2022-09-01T11:51:21;19.20;99.90
17033;DHT22;63208;52.178;21.016;2022-09-01T11:53:49;19.10;99.90
17033;DHT22;63208;52.178;21.016;2022-09-01T11:56:19;19.40;99.90
17033;DHT22;63208;52.178;21.016;2022-09-01T11:58:51;19.40;99.90
17033;DHT22;63208;52.178;21.016;2022-09-01T12:01:20;19.30;99.90
17033;DHT22;63208;52.178;21.016;2022-09-01T12:03:48;19.30;99.90
17033;DHT22;63208;52.178;21.016;2022-09-01T12:06:20;19.20;99.90
17033;DHT22;63208;52.178;21.016;2022-09-01T12:08:55;19.30;99.90
17033;DHT22;63208;52.178;21.016;2022-09-01T12:11:24;19.80;99.90
17033;DHT22;63208;52.178;21.016;2022-09-01T12:13:58;19.90;99.90
17033;DHT22;63208;52.178;21.016;2022-09-01T12:16:27;19.80;99.90
17033;DHT22;63208;52.178;21.016;2022-09-01T12:18:56;20.00;99.90
17033;DHT22;63208;52.178;21.016;2022-09-01T12:21:26;20.20;99.90
17033;DHT22;63208;52.178;21.016;2022-09-01T12:23:54;20.10;99.90
17033;DHT22;63208;52.178;21.016;2022-09-01T12:26:35;20.10;99.90
17033;DHT22;63208;52.178;21.016;2022-09-01T12:29:04;20.70;99.90
17033;DHT22;63208;52.178;21.016;2022-09-01T12:31:33;21.50;99.90
17033;DHT22;63208;52.178;21.016;2022-09-01T12:34:00;22.20;99.90
17033;DHT22;63208;52.178;21.016;2022-09-01T12:36:30;22.80;99.90
17033;DHT22;63208;52.178;21.016;2022-09-01T12:39:18;22.40;99.30
17033;DHT22;63208;52.178;21.016;2022-09-01T12:41:46;22.00;99.00
17033;DHT22;63208;52.178;21.016;2022-09-01T12:44:29;22.30;98.80
17033;DHT22;63208;52.178;21.016;2022-09-01T12:46:58;23.40;98.00
17033;DHT22;63208;52.178;21.016;2022-09-01T12:49:34;23.60;96.50
17033;DHT22;63208;52.178;21.016;2022-09-01T12:52:10;22.70;95.40
17033;DHT22;63208;52.178;21.016;2022-09-01T12:54:38;22.70;95.40
17033;DHT22;63208;52.178;21.016;2022-09-01T12:57:05;22.40;95.90
17033;DHT22;63208;52.178;21.016;2022-09-01T12:59:34;23.60;95.30
17033;DHT22;63208;52.178;21.016;2022-09-01T13:02:26;25.10;92.60
17033;DHT22;63208;52.178;21.016;2022-09-01T13:04:53;26.00;91.90
17033;DHT22;63208;52.178;21.016;2022-09-01T13:07:20;27.00;88.90
17033;DHT22;63208;52.178;21.016;2022-09-01T13:09:47;27.50;86.90
17033;DHT22;63208;52.178;21.016;2022-09-01T13:12:19;28.50;82.10
17033;DHT22;63208;52.178;21.016;2022-09-01T13:14:47;27.20;81.00
17033;DHT22;63208;52.178;21.016;2022-09-01T13:17:15;25.60;83.00
17033;DHT22;63208;52.178;21.016;2022-09-01T13:19:42;24.50;86.10
17033;DHT22;63208;52.178;21.016;2022-09-01T13:22:10;23.10;86.60
17033;DHT22;63208;52.178;21.016;2022-09-01T13:24:37;22.60;88.40
17033;DHT22;63208;52.178;21.016;2022-09-01T13:27:04;21.90;90.10
17033;DHT22;63208;52.178;21.016;2022-09-01T13:29:31;21.50;90.80
17033;DHT22;63208;52.178;21.016;2022-09-01T13:32:00;21.20;91.50
17033;DHT22;63208;52.178;21.016;2022-09-01T13:34:28;21.10;91.60
17033;DHT22;63208;52.178;21.016;2022-09-01T13:36:54;20.80;91.80
17033;DHT22;63208;52.178;21.016;2022-09-01T13:39:21;20.50;92.10
17033;DHT22;63208;52.178;21.016;2022-09-01T13:41:48;20.10;92.70
17033;DHT22;63208;52.178;21.016;2022-09-01T13:44:15;20.10;93.20
17033;DHT22;63208;52.178;21.016;2022-09-01T13:46:43;20.50;94.00
17033;DHT22;63208;52.178;21.016;2022-09-01T13:49:11;20.60;93.80
17033;DHT22;63208;52.178;21.016;2022-09-01T13:51:38;20.70;93.70
17033;DHT22;63208;52.178;21.016;2022-09-01T13:54:05;20.40;93.80
17033;DHT22;63208;52.178;21.016;2022-09-01T13:56:32;20.50;94.30
17033;DHT22;63208;52.178;21.016;2022-09-01T13:58:59;20.60;94.40
17033;DHT22;63208;52.178;21.016;2022-09-01T14:01:26;20.80;94.40
17033;DHT22;63208;52.178;21.016;2022-09-01T14:03:53;21.30;94.00
17033;DHT22;63208;52.178;21.016;2022-09-01T14:06:22;21.30;93.90
17033;DHT22;63208;52.178;21.016;2022-09-01T14:08:49;22.30;92.80
17033;DHT22;63208;52.178;21.016;2022-09-01T14:11:17;22.90;92.30
17033;DHT22;63208;52.178;21.016;2022-09-01T14:13:45;22.20;92.10
17033;DHT22;63208;52.178;21.016;2022-09-01T14:16:13;22.00;92.90
17033;DHT22;63208;52.178;21.016;2022-09-01T14:18:40;21.30;93.70
17033;DHT22;63208;52.178;21.016;2022-09-01T14:21:10;20.90;94.40
17033;DHT22;63208;52.178;21.016;2022-09-01T14:23:38;20.50;95.10
17033;DHT22;63208;52.178;21.016;2022-09-01T14:26:08;20.30;95.90
17033;DHT22;63208;52.178;21.016;2022-09-01T14:28:36;20.00;95.90
17033;DHT22;63208;52.178;21.016;2022-09-01T14:31:07;19.90;96.20
17033;DHT22;63208;52.178;21.016;2022-09-01T14:33:34;19.80;96.10
17033;DHT22;63208;52.178;21.016;2022-09-01T14:36:02;19.80;95.70
17033;DHT22;63208;52.178;21.016;2022-09-01T14:38:29;19.70;95.50
17033;DHT22;63208;52.178;21.016;2022-09-01T14:40:57;19.60;95.60
17033;DHT22;63208;52.178;21.016;2022-09-01T14:43:24;19.50;95.30
17033;DHT22;63208;52.178;21.016;2022-09-01T14:46:01;19.50;95.70
17033;DHT22;63208;52.178;21.016;2022-09-01T14:48:31;19.50;95.30
17033;DHT22;63208;52.178;21.016;2022-09-01T14:50:58;19.40;95.20
17033;DHT22;63208;52.178;21.016;2022-09-01T14:53:25;19.40;95.60
17033;DHT22;63208;52.178;21.016;2022-09-01T14:55:53;19.40;96.00
17033;DHT22;63208;52.178;21.016;2022-09-01T14:58:21;19.40;96.30
17033;DHT22;63208;52.178;21.016;2022-09-01T15:00:48;19.60;96.10
17033;DHT22;63208;52.178;21.016;2022-09-01T15:03:15;19.70;95.90
17033;DHT22;63208;52.178;21.016;2022-09-01T15:05:42;19.70;96.10
17033;DHT22;63208;52.178;21.016;2022-09-01T15:08:09;19.70;96.10
17033;DHT22;63208;52.178;21.016;2022-09-01T15:10:36;19.80;96.00
17033;DHT22;63208;52.178;21.016;2022-09-01T15:13:03;19.80;95.90
17033;DHT22;63208;52.178;21.016;2022-09-01T15:15:31;19.80;95.70
17033;DHT22;63208;52.178;21.016;2022-09-01T15:17:59;20.00;95.90
17033;DHT22;63208;52.178;21.016;2022-09-01T15:20:26;19.90;95.40
17033;DHT22;63208;52.178;21.016;2022-09-01T15:23:13;19.90;95.60
17033;DHT22;63208;52.178;21.016;2022-09-01T15:25:41;19.80;95.60
17033;DHT22;63208;52.178;21.016;2022-09-01T15:28:08;19.80;95.60
17033;DHT22;63208;52.178;21.016;2022-09-01T15:30:37;19.90;95.70
17033;DHT22;63208;52.178;21.016;2022-09-01T15:33:05;19.90;95.60
17033;DHT22;63208;52.178;21.016;2022-09-01T15:35:33;19.90;95.70
17033;DHT22;63208;52.178;21.016;2022-09-01T15:38:00;19.80;95.30
17033;DHT22;63208;52.178;21.016;2022-09-01T15:40:28;19.80;95.10
17033;DHT22;63208;52.178;21.016;2022-09-01T15:42:56;19.70;95.00
17033;DHT22;63208;52.178;21.016;2022-09-01T15:45:26;19.70;95.10